sensor_id;sensor_type;location;lat;lon;timestamp;temperature;humidity
17128;DHT22;8679;50.842;4.322;2022-07-11T00:02:21;18.20;94.30
17128;DHT22;8679;50.842;4.322;2022-07-11T00:04:47;18.10;96.20
17128;DHT22;8679;50.842;4.322;2022-07-11T00:07:14;18.10;99.90
17128;DHT22;8679;50.842;4.322;2022-07-11T00:09:40;18.10;99.60
17128;DHT22;8679;50.842;4.322;2022-07-11T00:12:07;18.10;96.60
17128;DHT22;8679;50.842;4.322;2022-07-11T00:14:33;18.10;97.30
17128;DHT22;8679;50.842;4.322;2022-07-11T00:16:59;18.10;99.90
17128;DHT22;8679;50.842;4.322;2022-07-11T00:19:25;18.10;99.90
17128;DHT22;8679;50.842;4.322;2022-07-11T00:21:51;18.00;99.90
17128;DHT22;8679;50.842;4.322;2022-07-11T00:24:17;18.00;99.90
17128;DHT22;8679;50.842;4.322;2022-07-11T00:26:46;18.00;99.90
17128;DHT22;8679;50.842;4.322;2022-07-11T00:29:12;17.90;99.90
17128;DHT22;8679;50.842;4.322;2022-07-11T00:31:38;17.90;99.90
17128;DHT22;8679;50.842;4.322;2022-07-11T00:34:04;17.90;99.90
17128;DHT22;8679;50.842;4.322;2022-07-11T00:36:30;17.90;99.90
17128;DHT22;8679;50.842;4.322;2022-07-11T00:38:57;17.90;99.90
17128;DHT22;8679;50.842;4.322;2022-07-11T00:41:23;17.80;99.90
17128;DHT22;8679;50.842;4.322;2022-07-11T00:43:57;17.80;99.90
17128;DHT22;8679;50.842;4.322;2022-07-11T00:46:24;17.70;99.90
17128;DHT22;8679;50.842;4.322;2022-07-11T00:48:50;17.70;99.90
17128;DHT22;8679;50.842;4.322;2022-07-11T00:51:20;17.70;99.90
17128;DHT22;8679;50.842;4.322;2022-07-11T00:53:51;17.70;99.90
17128;DHT22;8679;50.842;4.322;2022-07-11T00:56:21;17.70;99.90
17128;DHT22;8679;50.842;4.322;2022-07-11T00:58:51;17.60;99.90
17128;DHT22;8679;50.842;4.322;2022-07-11T01:01:17;17.60;99.90
17128;DHT22;8679;50.842;4.322;2022-07-11T01:03:43;17.60;99.90
17128;DHT22;8679;50.842;4.322;2022-07-11T01:06:10;17.60;99.90
17128;DHT22;8679;50.842;4.322;2022-07-11T01:08:38;17.50;99.90
17128;DHT22;8679;50.842;4.322;2022-07-11T01:11:05;17.50;99.90
17128;DHT22;8679;50.842;4.322;2022-07-11T01:13:31;17.50;99.90
17128;DHT22;8679;50.842;4.322;2022-07-11T01:18:35;17.40;99.90
17128;DHT22;8679;50.842;4.322;2022-07-11T01:21:05;17.40;99.90
17128;DHT22;8679;50.842;4.322;2022-07-11T01:23:33;17.40;99.90
17128;DHT22;8679;50.842;4.322;2022-07-11T01:25:59;17.40;99.90
17128;DHT22;8679;50.842;4.322;2022-07-11T01:28:25;17.30;99.90
17128;DHT22;8679;50.842;4.322;2022-07-11T01:30:50;17.30;99.90
17128;DHT22;8679;50.842;4.322;2022-07-11T01:33:16;17.30;99.90
17128;DHT22;8679;50.842;4.322;2022-07-11T01:35:42;17.30;99.90
17128;DHT22;8679;50.842;4.322;2022-07-11T01:38:07;17.30;99.90
17128;DHT22;8679;50.842;4.322;2022-07-11T01:40:33;17.30;99.90
17128;DHT22;8679;50.842;4.322;2022-07-11T01:42:59;17.30;99.90
17128;DHT22;8679;50.842;4.322;2022-07-11T01:45:24;17.20;99.90
17128;DHT22;8679;50.842;4.322;2022-07-11T01:47:50;17.20;99.90
17128;DHT22;8679;50.842;4.322;2022-07-11T01:50:16;17.20;99.90
17128;DHT22;8679;50.842;4.322;2022-07-11T01:52:41;17.10;99.90
17128;DHT22;8679;50.842;4.322;2022-07-11T01:55:07;17.10;99.90
17128;DHT22;8679;50.842;4.322;2022-07-11T01:57:33;17.10;99.90
17128;DHT22;8679;50.842;4.322;2022-07-11T01:59:59;17.10;99.90
17128;DHT22;8679;50.842;4.322;2022-07-11T02:02:25;17.10;99.90
17128;DHT22;8679;50.842;4.322;2022-07-11T02:04:50;17.00;99.90
17128;DHT22;8679;50.842;4.322;2022-07-11T02:07:16;17.00;99.90
17128;DHT22;8679;50.842;4.322;2022-07-11T02:10:02;17.00;99.90
17128;DHT22;8679;50.842;4.322;2022-07-11T02:12:28;16.90;99.90
17128;DHT22;8679;50.842;4.322;2022-07-11T02:14:53;16.90;99.90
17128;DHT22;8679;50.842;4.322;2022-07-11T02:17:19;16.90;99.90
17128;DHT22;8679;50.842;4.322;2022-07-11T02:19:44;16.90;99.90
17128;DHT22;8679;50.842;4.322;2022-07-11T02:22:10;16.90;99.90
17128;DHT22;8679;50.842;4.322;2022-07-11T02:24:36;16.80;99.90
17128;DHT22;8679;50.842;4.322;2022-07-11T02:27:02;16.80;99.90
17128;DHT22;8679;50.842;4.322;2022-07-11T02:29:28;16.80;99.90
17128;DHT22;8679;50.842;4.322;2022-07-11T02:31:53;16.80;99.90
17128;DHT22;8679;50.842;4.322;2022-07-11T02:34:19;16.80;99.90
17128;DHT22;8679;50.842;4.322;2022-07-11T02:36:44;16.80;99.90
17128;DHT22;8679;50.842;4.322;2022-07-11T02:39:11;16.80;99.90
17128;DHT22;8679;50.842;4.322;2022-07-11T02:41:37;16.80;99.90
17128;DHT22;8679;50.842;4.322;2022-07-11T02:44:02;16.80;99.90
17128;DHT22;8679;50.842;4.322;2022-07-11T02:46:28;16.70;99.90
17128;DHT22;8679;50.842;4.322;2022-07-11T02:48:54;16.80;99.90
17128;DHT22;8679;50.842;4.322;2022-07-11T02:51:19;16.70;99.90
17128;DHT22;8679;50.842;4.322;2022-07-11T02:53:46;16.70;99.90
17128;DHT22;8679;50.842;4.322;2022-07-11T02:56:12;16.70;99.90
17128;DHT22;8679;50.842;4.322;2022-07-11T02:58:38;16.70;99.90
17128;DHT22;8679;50.842;4.322;2022-07-11T03:01:04;16.70;99.90
17128;DHT22;8679;50.842;4.322;2022-07-11T03:03:30;16.70;99.90
17128;DHT22;8679;50.842;4.322;2022-07-11T03:05:56;16.70;99.90
17128;DHT22;8679;50.842;4.322;2022-07-11T03:08:22;16.60;99.90
17128;DHT22;8679;50.842;4.322;2022-07-11T03:10:48;16.60;99.90
17128;DHT22;8679;50.842;4.322;2022-07-11T03:13:14;16.60;99.90
17128;DHT22;8679;50.842;4.322;2022-07-11T03:15:40;16.50;99.90
17128;DHT22;8679;50.842;4.322;2022-07-11T03:18:05;16.50;99.90
17128;DHT22;8679;50.842;4.322;2022-07-11T03:20:32;16.50;99.90
17128;DHT22;8679;50.842;4.322;2022-07-11T03:22:58;16.50;99.90
17128;DHT22;8679;50.842;4.322;2022-07-11T03:25:24;16.40;99.90
17128;DHT22;8679;50.842;4.322;2022-07-11T03:27:49;16.40;99.90
17128;DHT22;8679;50.842;4.322;2022-07-11T03:30:15;16.40;99.90
17128;DHT22;8679;50.842;4.322;2022-07-11T03:32:41;16.40;99.90
17128;DHT22;8679;50.842;4.322;2022-07-11T03:35:07;16.40;99.90
17128;DHT22;8679;50.842;4.322;2022-07-11T03:37:51;16.40;99.90
17128;DHT22;8679;50.842;4.322;2022-07-11T03:40:17;16.40;99.90
17128;DHT22;8679;50.842;4.322;2022-07-11T03:42:42;16.30;99.90
17128;DHT22;8679;50.842;4.322;2022-07-11T03:45:09;16.30;99.90
17128;DHT22;8679;50.842;4.322;2022-07-11T03:47:34;16.30;99.90
17128;DHT22;8679;50.842;4.322;2022-07-11T03:50:02;16.40;99.90
17128;DHT22;8679;50.842;4.322;2022-07-11T03:52:28;16.40;99.90
17128;DHT22;8679;50.842;4.322;2022-07-11T03:54:53;16.30;99.90
17128;DHT22;8679;50.842;4.322;2022-07-11T03:57:19;16.40;99.90
17128;DHT22;8679;50.842;4.322;2022-07-11T03:59:44;16.40;99.90
17128;DHT22;8679;50.842;4.322;2022-07-11T04:02:10;16.40;99.90
17128;DHT22;8679;50.842;4.322;2022-07-11T04:04:36;16.40;99.90
17128;DHT22;8679;50.842;4.322;2022-07-11T04:07:01;16.40;99.90
17128;DHT22;8679;50.842;4.322;2022-07-11T04:09:27;16.40;99.90
17128;DHT22;8679;50.842;4.322;2022-07-11T04:11:53;16.50;99.90
17128;DHT22;8679;50.842;4.322;2022-07-11T04:14:18;16.50;99.90
17128;DHT22;8679;50.842;4.322;2022-07-11T04:16:44;16.50;99.90
17128;DHT22;8679;50.842;4.322;2022-07-11T04:19:09;16.50;99.90
17128;DHT22;8679;50.842;4.322;2022-07-11T04:21:35;16.60;99.90
17128;DHT22;8679;50.842;4.322;2022-07-11T04:24:01;16.60;99.90
17128;DHT22;8679;50.842;4.322;2022-07-11T04:26:26;16.70;99.90
17128;DHT22;8679;50.842;4.322;2022-07-11T04:28:52;16.80;99.90
17128;DHT22;8679;50.842;4.322;2022-07-11T04:31:17;16.80;99.90
17128;DHT22;8679;50.842;4.322;2022-07-11T04:33:43;16.80;99.90
17128;DHT22;8679;50.842;4.322;2022-07-11T04:36:09;16.80;99.90
17128;DHT22;8679;50.842;4.322;2022-07-11T04:38:35;16.80;99.90
17128;DHT22;8679;50.842;4.322;2022-07-11T04:41:00;16.80;99.90
17128;DHT22;8679;50.842;4.322;2022-07-11T04:43:26;16.90;99.90
17128;DHT22;8679;50.842;4.322;2022-07-11T04:45:51;16.90;99.90
17128;DHT22;8679;50.842;4.322;2022-07-11T04:48:17;17.00;99.90
17128;DHT22;8679;50.842;4.322;2022-07-11T04:50:43;17.00;99.90
17128;DHT22;8679;50.842;4.322;2022-07-11T04:53:12;17.00;99.90
17128;DHT22;8679;50.842;4.322;2022-07-11T04:55:38;17.10;99.90
17128;DHT22;8679;50.842;4.322;2022-07-11T04:58:07;17.10;99.90
17128;DHT22;8679;50.842;4.322;2022-07-11T05:00:34;17.10;99.90
17128;DHT22;8679;50.842;4.322;2022-07-11T05:03:01;17.20;99.90
17128;DHT22;8679;50.842;4.322;2022-07-11T05:05:26;17.20;99.90
17128;DHT22;8679;50.842;4.322;2022-07-11T05:07:53;17.20;99.90
17128;DHT22;8679;50.842;4.322;2022-07-11T05:10:19;17.30;99.90
17128;DHT22;8679;50.842;4.322;2022-07-11T05:12:45;17.30;99.90
17128;DHT22;8679;50.842;4.322;2022-07-11T05:15:11;17.30;99.90
17128;DHT22;8679;50.842;4.322;2022-07-11T05:17:36;17.40;99.90
17128;DHT22;8679;50.842;4.322;2022-07-11T05:20:03;17.40;99.90
17128;DHT22;8679;50.842;4.322;2022-07-11T05:22:29;17.50;99.90
17128;DHT22;8679;50.842;4.322;2022-07-11T05:24:55;17.50;99.90
17128;DHT22;8679;50.842;4.322;2022-07-11T05:27:20;17.50;99.90
17128;DHT22;8679;50.842;4.322;2022-07-11T05:29:46;17.60;99.90
17128;DHT22;8679;50.842;4.322;2022-07-11T05:32:12;17.60;99.90
17128;DHT22;8679;50.842;4.322;2022-07-11T05:34:37;17.70;99.90
17128;DHT22;8679;50.842;4.322;2022-07-11T05:37:03;17.70;99.90
17128;DHT22;8679;50.842;4.322;2022-07-11T05:39:29;17.70;99.90
17128;DHT22;8679;50.842;4.322;2022-07-11T05:41:55;17.70;99.90
17128;DHT22;8679;50.842;4.322;2022-07-11T05:44:20;17.70;99.90
17128;DHT22;8679;50.842;4.322;2022-07-11T05:46:46;17.80;99.90
17128;DHT22;8679;50.842;4.322;2022-07-11T05:49:12;17.80;99.90
17128;DHT22;8679;50.842;4.322;2022-07-11T05:51:40;17.80;99.90
17128;DHT22;8679;50.842;4.322;2022-07-11T05:54:07;17.90;99.90
17128;DHT22;8679;50.842;4.322;2022-07-11T05:56:33;17.90;99.90
17128;DHT22;8679;50.842;4.322;2022-07-11T05:58:58;17.90;99.90
17128;DHT22;8679;50.842;4.322;2022-07-11T06:01:24;18.00;99.90
17128;DHT22;8679;50.842;4.322;2022-07-11T06:03:52;18.10;99.90
17128;DHT22;8679;50.842;4.322;2022-07-11T06:06:18;18.10;99.90
17128;DHT22;8679;50.842;4.322;2022-07-11T06:08:44;18.10;99.90
17128;DHT22;8679;50.842;4.322;2022-07-11T06:11:13;18.20;99.90
17128;DHT22;8679;50.842;4.322;2022-07-11T06:13:41;18.30;99.90
17128;DHT22;8679;50.842;4.322;2022-07-11T06:16:08;18.30;99.90
17128;DHT22;8679;50.842;4.322;2022-07-11T06:18:35;18.40;99.90
17128;DHT22;8679;50.842;4.322;2022-07-11T06:21:01;18.40;99.90
17128;DHT22;8679;50.842;4.322;2022-07-11T06:23:28;18.50;99.90
17128;DHT22;8679;50.842;4.322;2022-07-11T06:25:54;18.50;99.90
17128;DHT22;8679;50.842;4.322;2022-07-11T06:28:20;18.60;99.90
17128;DHT22;8679;50.842;4.322;2022-07-11T06:30:46;18.60;99.90
17128;DHT22;8679;50.842;4.322;2022-07-11T06:33:15;18.70;99.90
17128;DHT22;8679;50.842;4.322;2022-07-11T06:35:44;18.70;99.90
17128;DHT22;8679;50.842;4.322;2022-07-11T06:38:10;18.70;99.90
17128;DHT22;8679;50.842;4.322;2022-07-11T06:40:36;18.80;99.90
17128;DHT22;8679;50.842;4.322;2022-07-11T06:43:11;18.70;99.90
17128;DHT22;8679;50.842;4.322;2022-07-11T06:45:38;18.70;99.90
17128;DHT22;8679;50.842;4.322;2022-07-11T06:48:05;18.70;99.90
17128;DHT22;8679;50.842;4.322;2022-07-11T06:50:31;18.80;99.90
17128;DHT22;8679;50.842;4.322;2022-07-11T06:52:58;18.80;99.90
17128;DHT22;8679;50.842;4.322;2022-07-11T06:55:23;18.80;99.90
17128;DHT22;8679;50.842;4.322;2022-07-11T06:57:49;18.90;99.90
17128;DHT22;8679;50.842;4.322;2022-07-11T07:00:17;18.90;99.90
17128;DHT22;8679;50.842;4.322;2022-07-11T07:02:44;18.90;99.90
17128;DHT22;8679;50.842;4.322;2022-07-11T07:05:10;18.90;99.90
17128;DHT22;8679;50.842;4.322;2022-07-11T07:07:36;19.00;99.90
17128;DHT22;8679;50.842;4.322;2022-07-11T07:10:02;19.10;99.90
17128;DHT22;8679;50.842;4.322;2022-07-11T07:12:28;19.10;99.90
17128;DHT22;8679;50.842;4.322;2022-07-11T07:14:54;19.20;99.90
17128;DHT22;8679;50.842;4.322;2022-07-11T07:17:19;19.30;99.90
17128;DHT22;8679;50.842;4.322;2022-07-11T07:19:45;19.40;99.90
17128;DHT22;8679;50.842;4.322;2022-07-11T07:22:11;19.40;99.90
17128;DHT22;8679;50.842;4.322;2022-07-11T07:24:42;19.40;96.00
17128;DHT22;8679;50.842;4.322;2022-07-11T07:27:08;19.40;95.30
17128;DHT22;8679;50.842;4.322;2022-07-11T07:29:34;19.40;95.80
17128;DHT22;8679;50.842;4.322;2022-07-11T07:31:59;19.50;94.90
17128;DHT22;8679;50.842;4.322;2022-07-11T07:34:25;19.60;94.50
17128;DHT22;8679;50.842;4.322;2022-07-11T07:36:51;19.70;93.10
17128;DHT22;8679;50.842;4.322;2022-07-11T07:39:17;19.80;89.80
17128;DHT22;8679;50.842;4.322;2022-07-11T07:41:43;19.80;82.20
17128;DHT22;8679;50.842;4.322;2022-07-11T07:44:09;19.90;78.90
17128;DHT22;8679;50.842;4.322;2022-07-11T07:46:34;20.00;75.60
17128;DHT22;8679;50.842;4.322;2022-07-11T07:49:00;20.10;62.30
17128;DHT22;8679;50.842;4.322;2022-07-11T07:51:26;20.00;59.20
17128;DHT22;8679;50.842;4.322;2022-07-11T07:53:52;20.10;61.10
17128;DHT22;8679;50.842;4.322;2022-07-11T07:56:17;20.20;58.40
17128;DHT22;8679;50.842;4.322;2022-07-11T07:58:44;20.30;49.20
17128;DHT22;8679;50.842;4.322;2022-07-11T08:01:10;20.20;41.40
17128;DHT22;8679;50.842;4.322;2022-07-11T08:04:03;20.20;44.70
17128;DHT22;8679;50.842;4.322;2022-07-11T08:06:29;20.40;42.40
17128;DHT22;8679;50.842;4.322;2022-07-11T08:08:55;20.40;45.20
17128;DHT22;8679;50.842;4.322;2022-07-11T08:11:21;20.40;38.00
17128;DHT22;8679;50.842;4.322;2022-07-11T08:13:47;20.40;32.40
17128;DHT22;8679;50.842;4.322;2022-07-11T08:16:14;20.40;31.80
17128;DHT22;8679;50.842;4.322;2022-07-11T08:18:40;20.50;31.30
17128;DHT22;8679;50.842;4.322;2022-07-11T08:21:06;20.50;23.20
17128;DHT22;8679;50.842;4.322;2022-07-11T08:23:31;20.60;24.10
17128;DHT22;8679;50.842;4.322;2022-07-11T08:25:57;20.60;20.90
17128;DHT22;8679;50.842;4.322;2022-07-11T08:28:23;20.70;20.60
17128;DHT22;8679;50.842;4.322;2022-07-11T08:30:48;20.90;15.70
17128;DHT22;8679;50.842;4.322;2022-07-11T08:33:14;21.00;4.10
17128;DHT22;8679;50.842;4.322;2022-07-11T08:35:40;21.10;3.90
17128;DHT22;8679;50.842;4.322;2022-07-11T08:38:06;21.10;3.00
17128;DHT22;8679;50.842;4.322;2022-07-11T08:40:32;21.20;1.00
17128;DHT22;8679;50.842;4.322;2022-07-11T08:42:57;21.20;1.40
17128;DHT22;8679;50.842;4.322;2022-07-11T08:45:30;21.20;1.00
17128;DHT22;8679;50.842;4.322;2022-07-11T08:47:59;21.20;1.00
17128;DHT22;8679;50.842;4.322;2022-07-11T08:50:27;21.20;1.00
17128;DHT22;8679;50.842;4.322;2022-07-11T08:52:54;21.20;1.00
17128;DHT22;8679;50.842;4.322;2022-07-11T08:55:20;21.30;1.00
17128;DHT22;8679;50.842;4.322;2022-07-11T08:57:46;21.40;1.00
17128;DHT22;8679;50.842;4.322;2022-07-11T09:00:13;21.50;1.00
17128;DHT22;8679;50.842;4.322;2022-07-11T09:02:41;21.50;1.00
17128;DHT22;8679;50.842;4.322;2022-07-11T09:05:08;21.60;1.00
17128;DHT22;8679;50.842;4.322;2022-07-11T09:07:42;21.70;1.00
17128;DHT22;8679;50.842;4.322;2022-07-11T09:10:08;21.80;1.00
17128;DHT22;8679;50.842;4.322;2022-07-11T09:12:34;22.00;1.00
17128;DHT22;8679;50.842;4.322;2022-07-11T09:14:59;22.00;1.00
17128;DHT22;8679;50.842;4.322;2022-07-11T09:17:29;22.10;1.00
17128;DHT22;8679;50.842;4.322;2022-07-11T09:19:58;22.10;1.00
17128;DHT22;8679;50.842;4.322;2022-07-11T09:22:24;22.00;1.00
17128;DHT22;8679;50.842;4.322;2022-07-11T09:25:11;22.00;1.00
17128;DHT22;8679;50.842;4.322;2022-07-11T09:28:02;22.20;1.00
17128;DHT22;8679;50.842;4.322;2022-07-11T09:30:33;22.40;1.00
17128;DHT22;8679;50.842;4.322;2022-07-11T09:33:10;22.40;1.00
17128;DHT22;8679;50.842;4.322;2022-07-11T09:35:40;22.50;1.00
17128;DHT22;8679;50.842;4.322;2022-07-11T09:38:09;22.50;1.00
17128;DHT22;8679;50.842;4.322;2022-07-11T09:40:36;22.60;1.00
17128;DHT22;8679;50.842;4.322;2022-07-11T09:43:03;22.50;1.00
17128;DHT22;8679;50.842;4.322;2022-07-11T09:45:31;22.50;1.00
17128;DHT22;8679;50.842;4.322;2022-07-11T09:47:59;22.50;1.00
17128;DHT22;8679;50.842;4.322;2022-07-11T09:50:28;22.50;1.00
17128;DHT22;8679;50.842;4.322;2022-07-11T09:55:39;22.70;1.00
17128;DHT22;8679;50.842;4.322;2022-07-11T09:58:06;22.80;1.00
17128;DHT22;8679;50.842;4.322;2022-07-11T10:00:33;22.90;1.00
17128;DHT22;8679;50.842;4.322;2022-07-11T10:03:02;22.90;1.00
17128;DHT22;8679;50.842;4.322;2022-07-11T10:05:28;23.00;1.00
17128;DHT22;8679;50.842;4.322;2022-07-11T10:07:55;23.00;1.00
17128;DHT22;8679;50.842;4.322;2022-07-11T10:10:24;23.10;1.00
17128;DHT22;8679;50.842;4.322;2022-07-11T10:12:55;23.10;1.00
17128;DHT22;8679;50.842;4.322;2022-07-11T10:15:35;23.20;1.00
17128;DHT22;8679;50.842;4.322;2022-07-11T10:20:58;23.50;1.00
17128;DHT22;8679;50.842;4.322;2022-07-11T10:28:55;23.80;1.00
17128;DHT22;8679;50.842;4.322;2022-07-11T10:31:23;23.70;1.00
17128;DHT22;8679;50.842;4.322;2022-07-11T10:34:26;23.80;1.00
17128;DHT22;8679;50.842;4.322;2022-07-11T10:36:52;23.90;1.00
17128;DHT22;8679;50.842;4.322;2022-07-11T10:39:24;24.00;1.00
17128;DHT22;8679;50.842;4.322;2022-07-11T10:41:51;24.00;1.00
17128;DHT22;8679;50.842;4.322;2022-07-11T10:44:17;23.80;1.00
17128;DHT22;8679;50.842;4.322;2022-07-11T10:46:43;23.80;1.00
17128;DHT22;8679;50.842;4.322;2022-07-11T10:49:20;23.90;1.00
17128;DHT22;8679;50.842;4.322;2022-07-11T10:51:51;24.00;1.00
17128;DHT22;8679;50.842;4.322;2022-07-11T10:59:29;25.10;1.00
17128;DHT22;8679;50.842;4.322;2022-07-11T11:02:08;25.20;1.00
17128;DHT22;8679;50.842;4.322;2022-07-11T11:07:35;25.20;1.00
17128;DHT22;8679;50.842;4.322;2022-07-11T11:10:05;25.40;1.00
17128;DHT22;8679;50.842;4.322;2022-07-11T11:15:46;25.80;1.00
17128;DHT22;8679;50.842;4.322;2022-07-11T11:18:32;25.80;1.00
17128;DHT22;8679;50.842;4.322;2022-07-11T11:23:39;26.00;1.00
17128;DHT22;8679;50.842;4.322;2022-07-11T11:28:35;25.90;1.00
17128;DHT22;8679;50.842;4.322;2022-07-11T11:31:04;25.90;1.00
17128;DHT22;8679;50.842;4.322;2022-07-11T11:33:35;26.00;1.00
17128;DHT22;8679;50.842;4.322;2022-07-11T11:36:06;26.50;1.00
17128;DHT22;8679;50.842;4.322;2022-07-11T11:38:37;26.80;76.70
17128;DHT22;8679;50.842;4.322;2022-07-11T11:41:04;26.90;99.90
17128;DHT22;8679;50.842;4.322;2022-07-11T11:43:34;26.70;99.90
17128;DHT22;8679;50.842;4.322;2022-07-11T11:46:00;26.40;99.90
17128;DHT22;8679;50.842;4.322;2022-07-11T11:48:34;26.30;99.90
17128;DHT22;8679;50.842;4.322;2022-07-11T11:51:11;26.10;99.90
17128;DHT22;8679;50.842;4.322;2022-07-11T11:53:49;26.10;99.90
17128;DHT22;8679;50.842;4.322;2022-07-11T11:58:56;26.60;99.90
17128;DHT22;8679;50.842;4.322;2022-07-11T12:01:30;26.80;99.90
17128;DHT22;8679;50.842;4.322;2022-07-11T12:04:01;27.20;99.90
17128;DHT22;8679;50.842;4.322;2022-07-11T12:06:35;27.50;99.90
17128;DHT22;8679;50.842;4.322;2022-07-11T12:11:30;27.90;99.90
17128;DHT22;8679;50.842;4.322;2022-07-11T12:14:00;28.10;99.90
17128;DHT22;8679;50.842;4.322;2022-07-11T12:16:28;28.20;99.90
17128;DHT22;8679;50.842;4.322;2022-07-11T12:19:20;28.30;99.90
17128;DHT22;8679;50.842;4.322;2022-07-11T12:21:49;27.80;99.90
17128;DHT22;8679;50.842;4.322;2022-07-11T12:24:23;27.80;99.90
17128;DHT22;8679;50.842;4.322;2022-07-11T12:26:52;27.70;99.90
17128;DHT22;8679;50.842;4.322;2022-07-11T12:29:20;27.70;99.90
17128;DHT22;8679;50.842;4.322;2022-07-11T12:34:15;27.70;99.90
17128;DHT22;8679;50.842;4.322;2022-07-11T12:36:42;27.90;99.90
17128;DHT22;8679;50.842;4.322;2022-07-11T12:39:08;28.10;99.90
17128;DHT22;8679;50.842;4.322;2022-07-11T12:41:34;27.80;99.90
17128;DHT22;8679;50.842;4.322;2022-07-11T12:44:00;28.20;99.90
17128;DHT22;8679;50.842;4.322;2022-07-11T12:46:45;28.60;99.90
17128;DHT22;8679;50.842;4.322;2022-07-11T12:49:13;28.90;99.90
17128;DHT22;8679;50.842;4.322;2022-07-11T12:51:43;29.30;99.90
17128;DHT22;8679;50.842;4.322;2022-07-11T12:54:13;29.80;99.90
17128;DHT22;8679;50.842;4.322;2022-07-11T12:56:40;29.90;99.90
17128;DHT22;8679;50.842;4.322;2022-07-11T12:59:21;30.00;99.90
17128;DHT22;8679;50.842;4.322;2022-07-11T13:01:58;30.00;99.90
17128;DHT22;8679;50.842;4.322;2022-07-11T13:10:11;30.70;99.90
17128;DHT22;8679;50.842;4.322;2022-07-11T13:12:37;30.90;99.90
17128;DHT22;8679;50.842;4.322;2022-07-11T13:15:06;30.90;99.90
17128;DHT22;8679;50.842;4.322;2022-07-11T13:17:42;31.00;99.90
17128;DHT22;8679;50.842;4.322;2022-07-11T13:20:13;31.00;99.90
17128;DHT22;8679;50.842;4.322;2022-07-11T13:22:40;31.40;99.90
17128;DHT22;8679;50.842;4.322;2022-07-11T13:25:06;31.60;99.90
17128;DHT22;8679;50.842;4.322;2022-07-11T13:27:31;31.70;99.60
17128;DHT22;8679;50.842;4.322;2022-07-11T13:29:58;32.00;98.40
17128;DHT22;8679;50.842;4.322;2022-07-11T13:32:24;32.40;94.50
17128;DHT22;8679;50.842;4.322;2022-07-11T13:34:49;32.70;94.80
17128;DHT22;8679;50.842;4.322;2022-07-11T13:37:16;33.60;93.70
17128;DHT22;8679;50.842;4.322;2022-07-11T13:39:42;33.70;93.30
17128;DHT22;8679;50.842;4.322;2022-07-11T13:42:07;33.90;90.30
17128;DHT22;8679;50.842;4.322;2022-07-11T13:44:33;33.80;88.80
17128;DHT22;8679;50.842;4.322;2022-07-11T13:46:59;34.20;87.20
17128;DHT22;8679;50.842;4.322;2022-07-11T13:49:24;34.50;81.80
17128;DHT22;8679;50.842;4.322;2022-07-11T13:51:51;34.30;80.60
17128;DHT22;8679;50.842;4.322;2022-07-11T13:54:18;34.40;79.60
17128;DHT22;8679;50.842;4.322;2022-07-11T13:56:44;34.60;78.10
17128;DHT22;8679;50.842;4.322;2022-07-11T13:59:10;34.80;75.00
17128;DHT22;8679;50.842;4.322;2022-07-11T14:01:36;34.90;75.40
17128;DHT22;8679;50.842;4.322;2022-07-11T14:04:01;35.30;72.70
17128;DHT22;8679;50.842;4.322;2022-07-11T14:06:27;35.40;66.80
17128;DHT22;8679;50.842;4.322;2022-07-11T14:08:53;35.40;64.60
17128;DHT22;8679;50.842;4.322;2022-07-11T14:11:18;35.50;62.20
17128;DHT22;8679;50.842;4.322;2022-07-11T14:13:44;35.00;63.10
17128;DHT22;8679;50.842;4.322;2022-07-11T14:16:10;34.70;64.60
17128;DHT22;8679;50.842;4.322;2022-07-11T14:18:35;34.50;64.40
17128;DHT22;8679;50.842;4.322;2022-07-11T14:21:01;33.70;64.80
17128;DHT22;8679;50.842;4.322;2022-07-11T14:23:27;33.50;66.80
17128;DHT22;8679;50.842;4.322;2022-07-11T14:25:53;34.30;66.80
17128;DHT22;8679;50.842;4.322;2022-07-11T14:28:19;35.20;65.70
17128;DHT22;8679;50.842;4.322;2022-07-11T14:30:45;35.70;61.90
17128;DHT22;8679;50.842;4.322;2022-07-11T14:33:10;35.90;63.20
17128;DHT22;8679;50.842;4.322;2022-07-11T14:35:36;35.80;61.40
17128;DHT22;8679;50.842;4.322;2022-07-11T14:38:02;35.60;59.30
17128;DHT22;8679;50.842;4.322;2022-07-11T14:40:28;34.60;59.60
17128;DHT22;8679;50.842;4.322;2022-07-11T14:42:54;33.90;61.80
17128;DHT22;8679;50.842;4.322;2022-07-11T14:45:20;34.40;63.40
17128;DHT22;8679;50.842;4.322;2022-07-11T14:47:45;35.10;61.50
17128;DHT22;8679;50.842;4.322;2022-07-11T14:50:11;34.70;58.90
17128;DHT22;8679;50.842;4.322;2022-07-11T14:52:38;34.40;57.90
17128;DHT22;8679;50.842;4.322;2022-07-11T14:55:05;35.00;59.00
17128;DHT22;8679;50.842;4.322;2022-07-11T14:57:31;35.50;57.40
17128;DHT22;8679;50.842;4.322;2022-07-11T14:59:57;36.30;54.70
17128;DHT22;8679;50.842;4.322;2022-07-11T15:02:23;37.50;51.20
17128;DHT22;8679;50.842;4.322;2022-07-11T15:05:07;37.90;48.10
17128;DHT22;8679;50.842;4.322;2022-07-11T15:07:33;37.00;46.00
17128;DHT22;8679;50.842;4.322;2022-07-11T15:10:17;35.70;48.10
17128;DHT22;8679;50.842;4.322;2022-07-11T15:13:01;36.20;50.20
17128;DHT22;8679;50.842;4.322;2022-07-11T15:15:27;37.30;48.40
17128;DHT22;8679;50.842;4.322;2022-07-11T15:17:52;37.90;45.30
17128;DHT22;8679;50.842;4.322;2022-07-11T15:20:18;38.50;42.80
17128;DHT22;8679;50.842;4.322;2022-07-11T15:22:43;38.60;40.60
17128;DHT22;8679;50.842;4.322;2022-07-11T15:25:09;38.50;39.60
17128;DHT22;8679;50.842;4.322;2022-07-11T15:27:35;38.80;39.60
17128;DHT22;8679;50.842;4.322;2022-07-11T15:30:01;39.70;37.30
17128;DHT22;8679;50.842;4.322;2022-07-11T15:32:26;40.00;33.00
17128;DHT22;8679;50.842;4.322;2022-07-11T15:34:52;40.10;31.50
17128;DHT22;8679;50.842;4.322;2022-07-11T15:37:19;40.80;29.60
17128;DHT22;8679;50.842;4.322;2022-07-11T15:39:45;40.20;30.50
17128;DHT22;8679;50.842;4.322;2022-07-11T15:42:10;40.30;29.90
17128;DHT22;8679;50.842;4.322;2022-07-11T15:44:36;40.00;30.00
17128;DHT22;8679;50.842;4.322;2022-07-11T15:47:02;40.90;29.40
17128;DHT22;8679;50.842;4.322;2022-07-11T15:49:28;41.20;28.10
17128;DHT22;8679;50.842;4.322;2022-07-11T15:51:53;40.40;27.00
17128;DHT22;8679;50.842;4.322;2022-07-11T15:54:19;39.30;28.70
17128;DHT22;8679;50.842;4.322;2022-07-11T15:56:45;39.40;28.50
17128;DHT22;8679;50.842;4.322;2022-07-11T15:59:12;39.80;28.60
17128;DHT22;8679;50.842;4.322;2022-07-11T16:01:37;40.20;28.50
17128;DHT22;8679;50.842;4.322;2022-07-11T16:04:04;41.10;27.70
17128;DHT22;8679;50.842;4.322;2022-07-11T16:06:31;41.30;25.50
17128;DHT22;8679;50.842;4.322;2022-07-11T16:08:59;41.00;26.50
17128;DHT22;8679;50.842;4.322;2022-07-11T16:11:25;42.00;24.90
17128;DHT22;8679;50.842;4.322;2022-07-11T16:13:51;41.40;24.20
17128;DHT22;8679;50.842;4.322;2022-07-11T16:16:22;41.80;23.90
17128;DHT22;8679;50.842;4.322;2022-07-11T16:18:50;41.30;23.50
17128;DHT22;8679;50.842;4.322;2022-07-11T16:21:18;41.50;23.60
17128;DHT22;8679;50.842;4.322;2022-07-11T16:23:45;41.80;22.40
17128;DHT22;8679;50.842;4.322;2022-07-11T16:26:11;42.00;21.40
17128;DHT22;8679;50.842;4.322;2022-07-11T16:28:39;41.80;21.70
17128;DHT22;8679;50.842;4.322;2022-07-11T16:31:05;41.60;22.00
17128;DHT22;8679;50.842;4.322;2022-07-11T16:33:30;41.40;22.10